createdAt,value
2019-03-29T00:01:47.998Z,5.30
2019-03-29T00:04:20.498Z,5.20
2019-03-29T00:06:52.733Z,5.20
2019-03-29T00:09:24.993Z,5.10
2019-03-29T00:11:57.615Z,5.10
2019-03-29T00:14:29.974Z,5.10
2019-03-29T00:17:02.141Z,5.00
2019-03-29T00:19:34.531Z,5.00
2019-03-29T00:22:07.167Z,4.90
2019-03-29T00:24:39.214Z,4.90
2019-03-29T00:27:11.491Z,4.80
2019-03-29T00:29:43.761Z,4.80
2019-03-29T00:32:15.905Z,4.80
2019-03-29T00:34:48.100Z,4.70
2019-03-29T00:37:20.234Z,4.80
2019-03-29T00:39:52.950Z,4.70
2019-03-29T00:42:25.037Z,4.70
2019-03-29T00:44:58.015Z,4.60
2019-03-29T00:47:30.268Z,4.60
2019-03-29T00:50:02.443Z,4.60
2019-03-29T00:52:34.510Z,4.50
2019-03-29T00:55:07.506Z,4.50
2019-03-29T00:57:39.815Z,4.50
2019-03-29T01:00:12.148Z,4.50
2019-03-29T01:02:44.891Z,4.50
2019-03-29T01:05:17.280Z,4.40
2019-03-29T01:07:49.334Z,4.40
2019-03-29T01:10:21.404Z,4.30
2019-03-29T01:12:54.508Z,4.30
2019-03-29T01:15:26.622Z,4.30
2019-03-29T01:17:58.850Z,4.30
2019-03-29T01:20:31.658Z,4.30
2019-03-29T01:23:04.319Z,4.30
2019-03-29T01:25:36.392Z,4.30
2019-03-29T01:28:08.420Z,4.20
2019-03-29T01:30:40.646Z,4.20
2019-03-29T01:33:12.970Z,4.30
2019-03-29T01:35:45.339Z,4.30
2019-03-29T01:38:22.182Z,4.30
2019-03-29T01:40:51.338Z,4.40
2019-03-29T01:43:25.820Z,4.30
2019-03-29T01:45:58.220Z,4.30
2019-03-29T01:48:30.759Z,4.30
2019-03-29T01:51:02.931Z,4.20
2019-03-29T01:53:35.070Z,4.20
2019-03-29T01:56:08.254Z,4.10
2019-03-29T01:58:40.373Z,4.20
2019-03-29T02:01:12.488Z,4.20
2019-03-29T02:03:44.927Z,4.20
2019-03-29T02:06:16.941Z,4.20
2019-03-29T02:08:49.226Z,4.40
2019-03-29T02:11:21.560Z,4.40
2019-03-29T02:13:53.872Z,4.50
2019-03-29T02:16:26.072Z,4.50
2019-03-29T02:18:58.045Z,4.60
2019-03-29T02:21:35.874Z,4.60
2019-03-29T02:24:08.271Z,4.70
2019-03-29T02:26:40.398Z,4.70
2019-03-29T02:29:12.825Z,4.80
2019-03-29T02:31:44.962Z,4.80
2019-03-29T02:34:17.473Z,4.80
2019-03-29T02:36:49.423Z,4.80
2019-03-29T02:39:21.526Z,4.80
2019-03-29T02:41:54.047Z,4.80
2019-03-29T02:44:26.239Z,4.80
2019-03-29T02:46:58.330Z,4.80
2019-03-29T02:49:31.834Z,4.80
2019-03-29T02:52:04.179Z,4.70
2019-03-29T02:54:36.213Z,4.70
2019-03-29T02:57:08.296Z,4.70
2019-03-29T02:59:40.612Z,4.60
2019-03-29T03:02:12.699Z,4.60
2019-03-29T03:04:44.800Z,4.50
2019-03-29T03:07:17.131Z,4.40
2019-03-29T03:09:49.235Z,4.40
2019-03-29T03:12:22.258Z,4.30
2019-03-29T03:14:54.968Z,4.30
2019-03-29T03:17:26.938Z,4.30
2019-03-29T03:19:59.157Z,4.20
2019-03-29T03:22:31.150Z,4.20
2019-03-29T03:25:03.518Z,4.20
2019-03-29T03:27:35.506Z,4.20
2019-03-29T03:30:10.107Z,4.10
2019-03-29T03:32:42.192Z,4.10
2019-03-29T03:35:14.825Z,4.10
2019-03-29T03:37:47.098Z,4.00
2019-03-29T03:40:19.466Z,4.00
2019-03-29T03:42:51.870Z,4.00
2019-03-29T03:45:24.033Z,4.00
2019-03-29T03:47:56.318Z,4.00
2019-03-29T03:50:48.062Z,4.00
2019-03-29T03:53:20.421Z,4.00
2019-03-29T03:55:53.703Z,4.00
2019-03-29T03:58:25.847Z,4.00
2019-03-29T04:00:58.632Z,4.00
2019-03-29T04:03:30.966Z,4.00
2019-03-29T04:06:03.498Z,3.90
2019-03-29T04:08:35.780Z,3.90
2019-03-29T04:11:07.817Z,3.90
2019-03-29T04:13:40.405Z,3.90
2019-03-29T04:16:12.623Z,3.80
2019-03-29T04:18:45.095Z,3.80
2019-03-29T04:21:17.306Z,3.80
2019-03-29T04:23:49.542Z,3.80
2019-03-29T04:26:21.594Z,3.70
2019-03-29T04:29:03.999Z,3.80
2019-03-29T04:31:27.925Z,3.70
2019-03-29T04:34:00.335Z,3.80
2019-03-29T04:36:32.259Z,3.80
2019-03-29T04:39:06.085Z,3.80
2019-03-29T04:41:38.458Z,3.80
2019-03-29T04:44:10.943Z,3.80
2019-03-29T04:46:43.051Z,3.90
2019-03-29T04:49:15.665Z,3.90
2019-03-29T04:51:48.176Z,3.90
2019-03-29T04:54:20.247Z,3.90
2019-03-29T04:56:53.201Z,4.00
2019-03-29T04:59:26.169Z,4.00
2019-03-29T05:01:59.659Z,4.00
2019-03-29T05:04:31.705Z,4.10
2019-03-29T05:07:04.817Z,4.10
2019-03-29T05:09:36.897Z,4.30
2019-03-29T05:12:09.421Z,4.40
2019-03-29T05:14:41.831Z,4.50
2019-03-29T05:17:14.103Z,4.60
2019-03-29T05:19:46.707Z,4.60
2019-03-29T05:22:19.238Z,4.80
2019-03-29T05:24:51.404Z,4.90
2019-03-29T05:27:23.519Z,5.00
2019-03-29T05:29:56.162Z,5.10
2019-03-29T05:32:28.983Z,5.30
2019-03-29T05:35:02.022Z,5.40
2019-03-29T05:37:34.559Z,5.50
2019-03-29T05:40:07.052Z,5.50
2019-03-29T05:42:39.603Z,5.60
2019-03-29T05:45:12.355Z,5.70
2019-03-29T05:47:44.852Z,5.80
2019-03-29T05:50:17.793Z,5.90
2019-03-29T05:52:50.279Z,6.00
2019-03-29T05:55:32.621Z,6.10
2019-03-29T05:57:57.051Z,6.10
2019-03-29T06:00:29.555Z,6.20
2019-03-29T06:03:03.305Z,6.10
2019-03-29T06:05:35.936Z,6.20
2019-03-29T06:08:08.293Z,6.30
2019-03-29T06:10:48.723Z,6.30
2019-03-29T06:13:14.915Z,6.40
2019-03-29T06:15:48.499Z,6.50
2019-03-29T06:18:20.961Z,6.60
2019-03-29T06:20:53.579Z,6.60
2019-03-29T06:23:26.483Z,6.70
2019-03-29T06:25:59.066Z,6.70
2019-03-29T06:28:31.701Z,6.70
2019-03-29T06:31:04.107Z,6.80
2019-03-29T06:33:37.826Z,6.80
2019-03-29T06:36:10.497Z,7.00
2019-03-29T06:38:43.060Z,7.20
2019-03-29T06:41:15.406Z,7.50
2019-03-29T06:44:05.539Z,7.60
2019-03-29T06:46:37.807Z,7.80
2019-03-29T06:49:10.545Z,8.00
2019-03-29T06:51:44.329Z,8.20
2019-03-29T06:54:17.209Z,8.60
2019-03-29T06:56:50.262Z,8.90
2019-03-29T06:59:23.654Z,9.00
2019-03-29T07:01:56.239Z,9.10
2019-03-29T07:04:29.545Z,9.40
2019-03-29T07:07:01.951Z,9.50
2019-03-29T07:09:34.520Z,9.60
2019-03-29T07:12:07.601Z,9.80
2019-03-29T07:14:39.685Z,10.40
2019-03-29T07:17:11.860Z,10.80
2019-03-29T07:19:44.681Z,11.40
2019-03-29T07:22:17.500Z,11.90
2019-03-29T07:24:49.823Z,12.30
2019-03-29T07:27:25.251Z,12.10
2019-03-29T07:29:58.173Z,11.50
2019-03-29T07:32:32.292Z,10.90
2019-03-29T07:35:04.803Z,10.40
2019-03-29T07:37:37.287Z,9.90
2019-03-29T07:40:10.721Z,9.60
2019-03-29T07:42:43.383Z,9.40
2019-03-29T07:45:16.397Z,9.30
2019-03-29T07:47:50.354Z,9.20
2019-03-29T07:50:22.783Z,9.10
2019-03-29T07:52:56.302Z,9.00
2019-03-29T07:55:28.965Z,8.90
2019-03-29T07:58:02.469Z,8.80
2019-03-29T08:00:35.481Z,8.70
2019-03-29T08:03:09.645Z,8.70
2019-03-29T08:05:43.380Z,8.70
2019-03-29T08:08:23.927Z,8.70
2019-03-29T08:10:53.922Z,8.80
2019-03-29T08:13:28.813Z,8.80
2019-03-29T08:16:01.705Z,8.80
2019-03-29T08:18:34.359Z,8.80
2019-03-29T08:21:06.854Z,8.90
2019-03-29T08:23:40.490Z,8.80
2019-03-29T08:26:13.843Z,8.80
2019-03-29T08:28:47.487Z,8.80
2019-03-29T08:31:20.240Z,8.90
2019-03-29T08:33:53.298Z,9.00
2019-03-29T08:36:25.899Z,9.10
2019-03-29T08:38:58.935Z,9.10
2019-03-29T08:41:31.980Z,9.20
2019-03-29T08:44:04.348Z,9.20
2019-03-29T08:46:37.190Z,9.20
2019-03-29T08:49:11.147Z,9.30
2019-03-29T08:51:44.222Z,9.40
2019-03-29T08:54:17.880Z,9.70
2019-03-29T08:56:50.647Z,10.00
2019-03-29T08:59:22.995Z,10.20
2019-03-29T09:01:55.926Z,10.40
2019-03-29T09:04:30.264Z,10.40
2019-03-29T09:07:03.017Z,10.40
2019-03-29T09:10:03.535Z,10.40
2019-03-29T09:12:36.048Z,10.70
2019-03-29T09:15:09.980Z,11.00
2019-03-29T09:17:42.710Z,11.30
2019-03-29T09:20:16.210Z,11.30
2019-03-29T09:22:48.914Z,11.10
2019-03-29T09:25:21.881Z,10.80
2019-03-29T09:27:54.990Z,10.80
2019-03-29T09:30:27.685Z,10.70
2019-03-29T09:33:00.182Z,10.80
2019-03-29T09:35:32.985Z,11.00
2019-03-29T09:38:05.723Z,11.30
2019-03-29T09:40:38.641Z,11.40
2019-03-29T09:43:11.981Z,11.50
2019-03-29T09:45:44.978Z,11.60
2019-03-29T09:48:17.420Z,11.80
2019-03-29T09:50:51.174Z,12.10
2019-03-29T09:53:25.235Z,12.00
2019-03-29T09:55:58.611Z,11.90
2019-03-29T09:58:31.578Z,11.70
2019-03-29T10:01:06.203Z,11.60
2019-03-29T10:03:38.469Z,11.50
2019-03-29T10:06:11.297Z,11.50
2019-03-29T10:08:44.616Z,11.70
2019-03-29T10:11:17.497Z,12.00
2019-03-29T10:13:49.874Z,12.20
2019-03-29T10:16:25.915Z,12.50
2019-03-29T10:18:57.985Z,12.90
2019-03-29T10:21:34.113Z,13.30
2019-03-29T10:24:07.412Z,13.40
2019-03-29T10:26:40.425Z,13.30
2019-03-29T10:29:12.833Z,13.40
2019-03-29T10:31:45.671Z,13.50
2019-03-29T10:34:19.053Z,13.50
2019-03-29T10:36:51.793Z,13.60
2019-03-29T10:39:26.351Z,13.50
2019-03-29T10:41:59.004Z,13.50
2019-03-29T10:44:31.966Z,13.70
2019-03-29T10:47:10.133Z,13.70
2019-03-29T10:49:43.309Z,13.80
2019-03-29T10:52:16.491Z,13.80
2019-03-29T10:54:50.612Z,13.80
2019-03-29T10:57:27.419Z,13.70
2019-03-29T11:00:02.936Z,13.70
2019-03-29T11:02:37.596Z,13.80
2019-03-29T11:05:20.193Z,14.00
2019-03-29T11:07:54.382Z,13.90
2019-03-29T11:10:34.997Z,13.80
2019-03-29T11:13:13.173Z,13.70
2019-03-29T11:15:43.426Z,13.50
2019-03-29T11:18:17.240Z,13.30
2019-03-29T11:20:50.293Z,13.00
2019-03-29T11:23:23.258Z,12.80
2019-03-29T11:25:56.969Z,12.70
2019-03-29T11:28:30.921Z,12.60
2019-03-29T11:31:04.708Z,12.50
2019-03-29T11:33:40.754Z,12.60
2019-03-29T11:36:14.795Z,12.60
2019-03-29T11:38:49.263Z,12.60
2019-03-29T11:41:25.955Z,12.60
2019-03-29T11:43:59.607Z,12.50
2019-03-29T11:46:33.113Z,12.50
2019-03-29T11:49:06.110Z,12.50
2019-03-29T11:51:39.247Z,12.40
2019-03-29T11:54:12.011Z,12.40
2019-03-29T11:56:47.671Z,12.30
2019-03-29T11:59:20.379Z,12.30
2019-03-29T12:01:55.952Z,12.30
2019-03-29T12:04:29.279Z,12.30
2019-03-29T12:07:03.714Z,12.30
2019-03-29T12:09:36.754Z,12.40
2019-03-29T12:12:09.641Z,12.50
2019-03-29T12:14:42.621Z,12.50
2019-03-29T12:17:17.023Z,12.50
2019-03-29T12:19:49.891Z,12.40
2019-03-29T12:22:24.359Z,12.40
2019-03-29T12:24:57.229Z,12.40
2019-03-29T12:27:30.320Z,12.30
2019-03-29T12:30:04.332Z,12.40
2019-03-29T12:32:37.141Z,12.40
2019-03-29T12:35:10.505Z,12.40
2019-03-29T12:37:44.463Z,12.50
2019-03-29T12:40:18.416Z,12.60
2019-03-29T12:42:51.179Z,12.70
2019-03-29T12:45:24.081Z,12.70
2019-03-29T12:47:56.847Z,12.70
2019-03-29T12:50:29.182Z,12.70
2019-03-29T12:53:02.367Z,12.70
2019-03-29T12:55:35.361Z,12.70
2019-03-29T12:58:20.853Z,12.70
2019-03-29T13:00:55.034Z,12.60
2019-03-29T13:03:28.701Z,12.60
2019-03-29T13:06:15.999Z,12.60
2019-03-29T13:08:49.439Z,12.60
2019-03-29T13:11:22.481Z,12.60
2019-03-29T13:14:09.071Z,12.60
2019-03-29T13:16:29.893Z,12.60
2019-03-29T13:19:03.576Z,12.60
2019-03-29T13:21:38.903Z,12.60
2019-03-29T13:24:15.715Z,12.60
2019-03-29T13:26:46.661Z,12.70
2019-03-29T13:29:20.057Z,12.80
2019-03-29T13:31:52.830Z,12.90
2019-03-29T13:34:26.182Z,12.90
2019-03-29T13:36:59.341Z,13.00
2019-03-29T13:39:31.673Z,13.00
2019-03-29T13:42:04.018Z,13.00
2019-03-29T13:44:37.675Z,12.90
2019-03-29T13:47:10.846Z,13.00
2019-03-29T13:49:43.707Z,13.10
2019-03-29T13:52:18.007Z,13.10
2019-03-29T13:54:53.792Z,13.10
2019-03-29T13:57:26.917Z,13.10
2019-03-29T14:00:01.254Z,13.00
2019-03-29T14:02:34.973Z,13.00
2019-03-29T14:05:08.849Z,13.00
2019-03-29T14:07:41.613Z,13.00
2019-03-29T14:10:15.225Z,13.00
2019-03-29T14:12:49.009Z,12.90
2019-03-29T14:15:22.166Z,12.90
2019-03-29T14:17:55.650Z,12.80
2019-03-29T14:20:34.641Z,12.70
2019-03-29T14:23:07.004Z,12.60
2019-03-29T14:25:39.987Z,12.50
2019-03-29T14:28:12.331Z,12.50
2019-03-29T14:30:44.590Z,12.40
2019-03-29T14:33:17.198Z,12.30
2019-03-29T14:35:49.644Z,12.30
2019-03-29T14:38:22.502Z,12.40
2019-03-29T14:40:55.164Z,12.40
2019-03-29T14:43:28.072Z,12.50
2019-03-29T14:46:00.772Z,12.50
2019-03-29T14:48:33.498Z,12.40
2019-03-29T14:51:06.281Z,12.30
2019-03-29T14:53:38.726Z,12.30
2019-03-29T14:56:11.226Z,12.20
2019-03-29T14:58:44.090Z,12.10
2019-03-29T15:01:16.666Z,12.10
2019-03-29T15:03:49.699Z,12.00
2019-03-29T15:06:22.034Z,12.00
2019-03-29T15:08:54.404Z,11.90
2019-03-29T15:11:28.113Z,11.90
2019-03-29T15:14:00.819Z,11.90
2019-03-29T15:16:33.611Z,11.90
2019-03-29T15:19:10.482Z,11.90
2019-03-29T15:21:44.181Z,12.00
2019-03-29T15:24:17.117Z,11.90
2019-03-29T15:26:50.926Z,11.90
2019-03-29T15:29:24.015Z,11.90
2019-03-29T15:31:56.857Z,11.90
2019-03-29T15:34:29.984Z,11.90
2019-03-29T15:37:03.112Z,11.90
2019-03-29T15:39:36.233Z,11.90
2019-03-29T15:42:10.201Z,12.00
2019-03-29T15:44:46.669Z,11.90
2019-03-29T15:47:21.290Z,11.90
2019-03-29T15:49:56.127Z,11.90
2019-03-29T15:52:29.219Z,11.90
2019-03-29T15:55:11.397Z,11.90
2019-03-29T15:57:43.387Z,11.90
2019-03-29T16:00:17.639Z,11.90
2019-03-29T16:02:50.834Z,11.90
2019-03-29T16:05:23.195Z,11.80
2019-03-29T16:07:57.162Z,11.80
2019-03-29T16:10:29.873Z,11.80
2019-03-29T16:13:02.663Z,11.80
2019-03-29T16:15:38.363Z,11.80
2019-03-29T16:18:09.737Z,11.70
2019-03-29T16:20:42.583Z,11.70
2019-03-29T16:23:15.127Z,11.70
2019-03-29T16:25:47.759Z,11.70
2019-03-29T16:28:20.771Z,11.70
2019-03-29T16:30:53.544Z,11.70
2019-03-29T16:33:26.277Z,11.70
2019-03-29T16:36:00.592Z,11.60
2019-03-29T16:38:33.530Z,11.60
2019-03-29T16:41:06.263Z,11.60
2019-03-29T16:43:38.865Z,11.60
2019-03-29T16:46:12.711Z,11.50
2019-03-29T16:48:48.015Z,11.50
2019-03-29T16:51:21.198Z,11.40
2019-03-29T16:53:55.582Z,11.40
2019-03-29T16:56:28.545Z,11.40
2019-03-29T16:59:01.648Z,11.40
2019-03-29T17:01:34.117Z,11.30
2019-03-29T17:04:07.160Z,11.30
2019-03-29T17:06:40.131Z,11.30
2019-03-29T17:09:13.853Z,11.30
2019-03-29T17:11:47.306Z,11.30
2019-03-29T17:14:20.005Z,11.20
2019-03-29T17:16:53.128Z,11.10
2019-03-29T17:19:26.766Z,11.10
2019-03-29T17:21:59.266Z,11.00
2019-03-29T17:24:32.093Z,11.00
2019-03-29T17:27:04.941Z,11.00
2019-03-29T17:29:38.457Z,10.90
2019-03-29T17:32:11.557Z,10.90
2019-03-29T17:34:43.938Z,10.90
2019-03-29T17:37:16.711Z,10.90
2019-03-29T17:39:49.215Z,10.90
2019-03-29T17:42:22.459Z,10.90
2019-03-29T17:44:58.860Z,10.80
2019-03-29T17:47:31.024Z,10.80
2019-03-29T17:50:03.689Z,10.80
2019-03-29T17:52:36.360Z,10.80
2019-03-29T17:55:09.887Z,10.70
2019-03-29T17:57:42.240Z,10.70
2019-03-29T18:00:17.279Z,10.70
2019-03-29T18:02:50.133Z,10.70
2019-03-29T18:05:23.535Z,10.60
2019-03-29T18:07:57.375Z,10.60
2019-03-29T18:10:30.101Z,10.60
2019-03-29T18:13:05.344Z,10.60
2019-03-29T18:15:38.015Z,10.60
2019-03-29T18:18:13.112Z,10.60
2019-03-29T18:20:44.985Z,10.60
2019-03-29T18:23:17.764Z,10.50
2019-03-29T18:25:50.566Z,10.50
2019-03-29T18:28:23.294Z,10.50
2019-03-29T18:30:56.137Z,10.50
2019-03-29T18:33:29.131Z,10.40
2019-03-29T18:36:02.957Z,10.40
2019-03-29T18:38:36.511Z,10.40
2019-03-29T18:41:08.904Z,10.40
2019-03-29T18:43:42.022Z,10.40
2019-03-29T18:46:17.308Z,10.40
2019-03-29T18:48:50.215Z,10.40
2019-03-29T18:51:24.501Z,10.30
2019-03-29T18:53:57.118Z,10.30
2019-03-29T18:56:29.490Z,10.30
2019-03-29T18:59:02.865Z,10.30
2019-03-29T19:01:35.804Z,10.20
2019-03-29T19:04:08.832Z,10.30
2019-03-29T19:06:41.169Z,10.20
2019-03-29T19:09:14.229Z,10.20
2019-03-29T19:11:47.061Z,10.10
2019-03-29T19:14:19.399Z,10.10
2019-03-29T19:16:58.796Z,10.10
2019-03-29T19:19:26.582Z,10.10
2019-03-29T19:21:59.633Z,10.10
2019-03-29T19:24:32.764Z,10.10
2019-03-29T19:27:05.135Z,10.00
2019-03-29T19:29:37.658Z,10.00
2019-03-29T19:32:09.871Z,10.00
2019-03-29T19:34:42.466Z,10.00
2019-03-29T19:37:16.461Z,9.90
2019-03-29T19:39:49.170Z,9.90
2019-03-29T19:42:22.280Z,9.80
2019-03-29T19:44:54.850Z,9.80
2019-03-29T19:47:28.412Z,9.70
2019-03-29T19:50:01.100Z,9.70
2019-03-29T19:52:33.876Z,9.60
2019-03-29T19:55:06.726Z,9.60
2019-03-29T19:57:39.511Z,9.60
2019-03-29T20:00:12.766Z,9.60
2019-03-29T20:02:45.476Z,9.50
2019-03-29T20:05:30.169Z,9.50
2019-03-29T20:08:02.738Z,9.50
2019-03-29T20:10:36.113Z,9.40
2019-03-29T20:13:09.658Z,9.40
2019-03-29T20:15:42.411Z,9.40
2019-03-29T20:18:15.137Z,9.40
2019-03-29T20:20:47.558Z,9.30
2019-03-29T20:23:20.130Z,9.30
2019-03-29T20:25:52.568Z,9.30
2019-03-29T20:28:26.310Z,9.30
2019-03-29T20:30:59.105Z,9.40
2019-03-29T20:33:31.681Z,9.30
2019-03-29T20:36:04.286Z,9.30
2019-03-29T20:38:36.730Z,9.30
2019-03-29T20:41:10.277Z,9.30
2019-03-29T20:43:42.637Z,9.30
2019-03-29T20:46:15.367Z,9.20
2019-03-29T20:48:47.625Z,9.30
2019-03-29T20:51:19.909Z,9.20
2019-03-29T20:53:52.476Z,9.20
2019-03-29T20:56:24.869Z,9.20
2019-03-29T20:58:58.721Z,9.20
2019-03-29T21:01:32.046Z,9.20
2019-03-29T21:04:06.566Z,9.10
2019-03-29T21:06:39.295Z,9.10
2019-03-29T21:09:12.142Z,9.10
2019-03-29T21:11:45.732Z,9.10
2019-03-29T21:14:19.846Z,9.10
2019-03-29T21:16:53.964Z,9.10
2019-03-29T21:19:26.040Z,9.00
2019-03-29T21:21:58.876Z,9.00
2019-03-29T21:24:32.381Z,9.00
2019-03-29T21:27:06.590Z,9.00
2019-03-29T21:29:39.011Z,9.00
2019-03-29T21:32:11.845Z,8.90
2019-03-29T21:34:46.634Z,8.90
2019-03-29T21:37:19.408Z,8.90
2019-03-29T21:39:53.513Z,8.90
2019-03-29T21:42:26.190Z,8.90
2019-03-29T21:44:59.095Z,8.90
2019-03-29T21:47:32.492Z,8.90
2019-03-29T21:50:06.191Z,8.90
2019-03-29T21:52:38.636Z,8.90
2019-03-29T21:55:11.413Z,8.80
2019-03-29T21:57:44.151Z,8.80
2019-03-29T22:00:16.835Z,8.80
2019-03-29T22:02:49.277Z,8.80
2019-03-29T22:05:22.862Z,8.80
2019-03-29T22:07:55.651Z,8.80
2019-03-29T22:10:28.986Z,8.80
2019-03-29T22:13:02.712Z,8.80
2019-03-29T22:15:36.692Z,8.70
2019-03-29T22:18:09.397Z,8.80
2019-03-29T22:20:43.014Z,8.80
2019-03-29T22:23:15.641Z,8.90
2019-03-29T22:25:47.923Z,8.90
2019-03-29T22:28:20.569Z,8.90
2019-03-29T22:30:54.401Z,8.90
2019-03-29T22:33:27.699Z,8.90
2019-03-29T22:36:00.217Z,8.90
2019-03-29T22:38:32.743Z,8.90
2019-03-29T22:41:05.219Z,8.80
2019-03-29T22:43:37.583Z,8.90
2019-03-29T22:46:11.858Z,8.90
2019-03-29T22:48:52.251Z,8.90
2019-03-29T22:51:17.779Z,8.90
2019-03-29T22:53:49.959Z,9.00
2019-03-29T22:56:22.774Z,9.00
2019-03-29T22:58:55.510Z,8.90
2019-03-29T23:01:28.226Z,8.90
2019-03-29T23:04:03.501Z,8.90
2019-03-29T23:06:34.650Z,8.90
2019-03-29T23:09:07.818Z,8.80
2019-03-29T23:11:40.146Z,8.70
2019-03-29T23:14:12.933Z,8.70
2019-03-29T23:16:45.195Z,8.70
2019-03-29T23:19:17.922Z,8.60
2019-03-29T23:21:49.978Z,8.50
2019-03-29T23:24:22.858Z,8.50
2019-03-29T23:26:55.035Z,8.40
2019-03-29T23:29:27.822Z,8.40
2019-03-29T23:32:00.406Z,8.30
2019-03-29T23:34:32.743Z,8.30
2019-03-29T23:37:04.852Z,8.30
2019-03-29T23:39:37.900Z,8.30
2019-03-29T23:42:11.400Z,8.30
2019-03-29T23:44:43.366Z,8.30
2019-03-29T23:47:15.762Z,8.30
2019-03-29T23:49:48.344Z,8.30
2019-03-29T23:52:21.006Z,8.30
2019-03-29T23:54:53.380Z,8.30
2019-03-29T23:57:26.563Z,8.40
2019-03-29T23:59:59.189Z,8.40
